Terminal Aerodrome Forecast
Issued by NWS

Home | Current Version | Previous Version | Text Only | Print | Product List | Glossary On
Versions: 1 2 3 4 5 6 7 8 9 10 11 12 13 14 15
000
FTUS41 KILN 251126
TAFLCK
TAF
KLCK 251126Z 2512/2612 18010KT P6SM VCSH OVC012
      TEMPO 2512/2515 OVC007
     FM251500 19006KT P6SM VCSH OVC022
     FM252000 26010KT P6SM VCSH OVC025
     FM260000 29009KT P6SM OVC013=

USA.gov is the U.S. government's official web portal to all federal, state and local government web resources and services.